Time;durP1;ratioP1;P1;durP2;ratioP2;P2;SDS_P1;SDS_P2;PMS_P1;PMS_P2;Temp;Humidity;BMP_temperature;BMP_pressure;BME280_temperature;BME280_humidity;BME280_pressure;Samples;Min_cycle;Max_cycle;Signal;HPM_P1;HPM_P2
2022/09/16 00:01:51;;;;;;;0.00;0.00;;;11.00;99.90;;;;;;4940674;28;20047;-88
2022/09/16 00:04:17;;;;;;;0.00;0.00;;;10.90;99.90;;;;;;4951804;28;20125;-88
2022/09/16 00:06:42;;;;;;;0.00;0.00;;;10.90;99.90;;;;;;4961561;28;20047;-88
2022/09/16 00:09:08;;;;;;;0.13;0.03;;;10.90;99.90;;;;;;4936761;28;20325;-88
2022/09/16 00:11:34;;;;;;;0.00;0.00;;;10.90;99.90;;;;;;4955946;28;20057;-88
2022/09/16 00:14:01;;;;;;;0.00;0.00;;;11.00;99.90;;;;;;4980536;28;20130;-88
2022/09/16 00:16:28;;;;;;;0.08;0.00;;;10.90;99.90;;;;;;4926265;28;20051;-88
2022/09/16 00:18:59;;;;;;;0.08;0.00;;;11.00;99.90;;;;;;4930258;28;20082;-88
2022/09/16 00:21:26;;;;;;;0.00;0.00;;;11.00;99.90;;;;;;4917451;28;20049;-88
2022/09/16 00:23:52;;;;;;;0.00;0.00;;;11.00;99.90;;;;;;4924606;28;20167;-88
2022/09/16 00:26:18;;;;;;;0.03;0.03;;;11.00;99.90;;;;;;4972857;28;20035;-88
2022/09/16 00:28:48;;;;;;;0.00;0.00;;;11.00;99.90;;;;;;4946029;28;20474;-88
2022/09/16 00:31:14;;;;;;;0.00;0.00;;;11.00;99.90;;;;;;4939344;28;20051;-88
2022/09/16 00:33:39;;;;;;;0.40;0.00;;;11.00;99.90;;;;;;4942926;28;20039;-88
2022/09/16 00:36:07;;;;;;;0.10;0.10;;;11.00;99.90;;;;;;4940526;28;20050;-89
2022/09/16 00:38:33;;;;;;;0.00;0.00;;;11.00;99.90;;;;;;4952786;28;20047;-90
2022/09/16 00:40:59;;;;;;;0.00;0.00;;;11.10;99.90;;;;;;4949950;28;20394;-90
2022/09/16 00:43:25;;;;;;;0.00;0.00;;;11.10;99.90;;;;;;4960800;28;20054;-89
2022/09/16 00:45:56;;;;;;;0.00;0.00;;;11.10;99.90;;;;;;4943389;28;20051;-88
2022/09/16 00:48:25;;;;;;;0.17;0.10;;;11.10;99.90;;;;;;4931899;28;20062;-90
2022/09/16 00:51:01;;;;;;;0.10;0.00;;;11.10;99.90;;;;;;4973535;28;20453;-89
2022/09/16 00:53:41;;;;;;;0.50;0.35;;;11.10;99.90;;;;;;4943399;28;20481;-90
2022/09/16 00:56:11;;;;;;;0.10;0.10;;;11.10;99.90;;;;;;4956631;28;20149;-89
2022/09/16 00:58:44;;;;;;;0.00;0.00;;;11.10;99.90;;;;;;4937559;28;20384;-89
2022/09/16 01:01:10;;;;;;;0.00;0.00;;;11.10;99.90;;;;;;4981680;28;20085;-90
2022/09/16 01:03:49;;;;;;;0.07;0.07;;;11.10;99.90;;;;;;4947488;28;20066;-90
2022/09/16 01:06:17;;;;;;;0.35;0.00;;;11.10;99.90;;;;;;4971572;28;20062;-89
2022/09/16 01:08:44;;;;;;;0.10;0.10;;;11.10;99.90;;;;;;4952582;28;20070;-90
2022/09/16 01:11:10;;;;;;;0.05;0.05;;;11.10;99.90;;;;;;4987255;28;20129;-89
2022/09/16 01:13:37;;;;;;;0.20;0.10;;;11.10;99.90;;;;;;4951903;28;20098;-90
2022/09/16 01:16:23;;;;;;;0.00;0.00;;;11.20;99.90;;;;;;4980162;28;20054;-93
2022/09/16 01:18:54;;;;;;;0.00;0.00;;;11.10;99.90;;;;;;4950916;28;20057;-93
2022/09/16 01:21:37;;;;;;;0.00;0.00;;;11.10;99.90;;;;;;4978858;28;20050;-92
2022/09/16 01:24:18;;;;;;;1.38;0.08;;;11.10;99.90;;;;;;4957031;28;20045;-92
2022/09/16 01:26:50;;;;;;;0.03;0.03;;;11.10;99.90;;;;;;4954047;28;20050;-91
2022/09/16 01:29:37;;;;;;;0.00;0.00;;;11.10;99.90;;;;;;4984055;28;20110;-90
2022/09/16 01:32:13;;;;;;;0.10;0.00;;;11.00;99.90;;;;;;4953564;28;20522;-92
2022/09/16 01:35:04;;;;;;;0.00;0.00;;;11.00;99.90;;;;;;4952918;28;20121;-92
2022/09/16 01:37:45;;;;;;;0.10;0.10;;;11.00;99.90;;;;;;4954411;28;20788;-89
2022/09/16 01:40:23;;;;;;;0.00;0.00;;;11.00;99.90;;;;;;4951164;28;20039;-90
2022/09/16 01:43:05;;;;;;;0.08;0.00;;;11.00;99.90;;;;;;4945086;28;20059;-90
2022/09/16 01:45:39;;;;;;;0.00;0.00;;;10.90;99.90;;;;;;4942847;28;20055;-90
2022/09/16 01:48:24;;;;;;;0.05;0.05;;;10.90;99.90;;;;;;4926287;28;20062;-89
2022/09/16 01:51:23;;;;;;;0.00;0.00;;;10.90;99.90;;;;;;4939777;28;20082;-90
2022/09/16 01:54:12;;;;;;;0.20;0.00;;;10.90;99.90;;;;;;4953590;28;20075;-89
2022/09/16 01:57:15;;;;;;;0.00;0.00;;;10.80;99.90;;;;;;4970029;28;20077;-89
2022/09/16 01:59:53;;;;;;;0.00;0.00;;;10.80;99.90;;;;;;4954417;28;20093;-89
2022/09/16 02:02:41;;;;;;;0.00;0.00;;;10.80;99.90;;;;;;4932110;28;20046;-89
2022/09/16 02:05:16;;;;;;;0.10;0.10;;;10.70;99.90;;;;;;4949514;28;20042;-88
2022/09/16 02:07:48;;;;;;;0.00;0.00;;;10.70;99.90;;;;;;4971484;28;20043;-91
2022/09/16 02:10:26;;;;;;;0.00;0.00;;;10.70;99.90;;;;;;4979728;28;20058;-88
2022/09/16 02:12:56;;;;;;;0.00;0.00;;;10.60;99.90;;;;;;4955395;28;20038;-88
2022/09/16 02:15:25;;;;;;;0.13;0.00;;;10.60;99.90;;;;;;4975165;28;20043;-88
2022/09/16 02:18:06;;;;;;;0.00;0.00;;;10.60;99.90;;;;;;4975985;28;20050;-89
2022/09/16 02:20:36;;;;;;;0.00;0.00;;;10.60;99.90;;;;;;4942943;28;20054;-89
2022/09/16 02:23:11;;;;;;;0.05;0.05;;;10.60;99.90;;;;;;4942515;28;20050;-88
2022/09/16 02:25:39;;;;;;;0.03;0.03;;;10.60;99.90;;;;;;4940709;28;20409;-89
2022/09/16 02:28:11;;;;;;;0.00;0.00;;;10.50;99.90;;;;;;4970465;28;20126;-88
2022/09/16 02:30:41;;;;;;;0.10;0.10;;;10.50;99.90;;;;;;4986351;28;20046;-88
2022/09/16 02:33:10;;;;;;;0.10;0.00;;;10.50;99.90;;;;;;4939802;28;20097;-89
2022/09/16 02:35:38;;;;;;;0.20;0.00;;;10.50;99.90;;;;;;4954563;28;20054;-89
2022/09/16 02:38:11;;;;;;;0.00;0.00;;;10.40;99.90;;;;;;4928990;28;20054;-90
2022/09/16 02:40:45;;;;;;;0.00;0.00;;;10.40;99.90;;;;;;4929379;28;20050;-88
2022/09/16 02:43:11;;;;;;;0.00;0.00;;;10.40;99.90;;;;;;4958543;28;20042;-87
2022/09/16 02:45:44;;;;;;;0.00;0.00;;;10.40;99.90;;;;;;4955419;28;20050;-88
2022/09/16 02:48:57;;;;;;;0.00;0.00;;;10.40;99.90;;;;;;4959461;28;20521;-88
2022/09/16 02:51:44;;;;;;;0.00;0.00;;;10.40;99.90;;;;;;4879550;29;20128;-88
2022/09/16 02:54:10;;;;;;;0.20;0.03;;;10.40;99.90;;;;;;4937445;28;20055;-88
2022/09/16 02:56:39;;;;;;;0.00;0.00;;;10.50;99.90;;;;;;4965760;28;20057;-89
2022/09/16 02:59:06;;;;;;;0.10;0.00;;;10.50;99.90;;;;;;4949738;28;20322;-90
2022/09/16 03:01:40;;;;;;;0.10;0.03;;;10.50;99.90;;;;;;4939539;28;20047;-91
2022/09/16 03:04:10;;;;;;;0.00;0.00;;;10.60;99.90;;;;;;4946870;28;20046;-91
2022/09/16 03:06:37;;;;;;;0.00;0.00;;;10.50;99.90;;;;;;4948893;28;20394;-90
2022/09/16 03:09:06;;;;;;;0.00;0.00;;;10.50;99.90;;;;;;4924246;28;20047;-90
2022/09/16 03:11:44;;;;;;;0.00;0.00;;;10.50;99.90;;;;;;4980610;28;20043;-89
2022/09/16 03:14:25;;;;;;;0.00;0.00;;;10.50;99.90;;;;;;4989381;28;20130;-89
2022/09/16 03:17:27;;;;;;;0.00;0.00;;;10.60;99.90;;;;;;4941413;28;20082;-89
2022/09/16 03:20:16;;;;;;;0.10;0.10;;;10.60;99.90;;;;;;4984079;28;20047;-93
2022/09/16 03:23:04;;;;;;;0.00;0.00;;;10.50;99.90;;;;;;4941763;28;20397;-89
2022/09/16 03:25:44;;;;;;;0.00;0.00;;;10.60;99.90;;;;;;4957012;28;20130;-89
2022/09/16 03:28:47;;;;;;;0.90;0.10;;;10.60;99.90;;;;;;4958174;28;20602;-88
2022/09/16 03:31:34;;;;;;;0.00;0.00;;;10.60;99.90;;;;;;4934025;28;20058;-89
2022/09/16 03:34:18;;;;;;;0.20;0.10;;;10.60;99.90;;;;;;4956797;28;20039;-89
2022/09/16 03:36:51;;;;;;;0.00;0.00;;;10.50;99.90;;;;;;4959082;28;20047;-89
2022/09/16 03:39:17;;;;;;;0.03;0.00;;;10.50;99.90;;;;;;4932822;28;20106;-89
2022/09/16 03:41:44;;;;;;;0.00;0.00;;;10.50;99.90;;;;;;4942037;28;20129;-87
2022/09/16 03:44:09;;;;;;;0.00;0.00;;;10.40;99.90;;;;;;4957285;28;20039;-89
2022/09/16 03:46:35;;;;;;;0.00;0.00;;;10.40;99.90;;;;;;4981778;28;20856;-89
2022/09/16 03:49:01;;;;;;;0.00;0.00;;;10.40;99.90;;;;;;4935288;28;20047;-89
2022/09/16 03:51:26;;;;;;;0.00;0.00;;;10.30;99.90;;;;;;4955173;28;20047;-88
2022/09/16 03:53:53;;;;;;;0.00;0.00;;;10.30;99.90;;;;;;4970546;28;20047;-88
2022/09/16 03:56:21;;;;;;;;;;;10.30;99.90;;;;;;4936586;28;20664;-88
2022/09/16 03:58:47;;;;;;;0.03;0.03;;;10.20;99.90;;;;;;4949322;28;19926;-89
2022/09/16 04:01:13;;;;;;;0.00;0.00;;;10.20;99.90;;;;;;4932630;28;20079;-88
2022/09/16 04:03:39;;;;;;;0.00;0.00;;;10.20;99.90;;;;;;4925616;28;20378;-88
2022/09/16 04:06:05;;;;;;;0.00;0.00;;;10.20;99.90;;;;;;4956867;28;20285;-88
2022/09/16 04:08:31;;;;;;;0.00;0.00;;;10.20;99.90;;;;;;4953210;28;20046;-87
2022/09/16 04:10:59;;;;;;;0.17;0.10;;;10.20;99.90;;;;;;4953630;28;20043;-87
2022/09/16 04:13:25;;;;;;;0.00;0.00;;;10.20;99.90;;;;;;4972871;28;20039;-87
2022/09/16 04:15:51;;;;;;;0.00;0.00;;;10.10;99.90;;;;;;4957345;28;20046;-88
2022/09/16 04:18:17;;;;;;;0.10;0.10;;;10.10;99.90;;;;;;4979931;28;20500;-87
2022/09/16 04:20:43;;;;;;;0.00;0.00;;;10.10;99.90;;;;;;4947912;28;20397;-88
2022/09/16 04:23:09;;;;;;;0.00;0.00;;;10.10;99.90;;;;;;4931142;28;20050;-88
2022/09/16 04:25:34;;;;;;;0.20;0.20;;;10.10;99.90;;;;;;4955697;28;20580;-87
2022/09/16 04:28:00;;;;;;;0.10;0.10;;;10.10;99.90;;;;;;4954816;28;20163;-87
2022/09/16 04:30:26;;;;;;;0.10;0.00;;;10.00;99.90;;;;;;4940329;28;20500;-87
2022/09/16 04:32:53;;;;;;;0.00;0.00;;;10.00;99.90;;;;;;4934537;28;20034;-88
2022/09/16 04:35:19;;;;;;;0.00;0.00;;;10.00;99.90;;;;;;4971880;28;20053;-87
2022/09/16 04:37:45;;;;;;;0.00;0.00;;;9.90;99.90;;;;;;4945501;28;20051;-88
2022/09/16 04:40:11;;;;;;;0.00;0.00;;;9.90;99.90;;;;;;4937600;28;20090;-88
2022/09/16 04:42:37;;;;;;;0.15;0.00;;;9.90;99.90;;;;;;4950011;28;20055;-89
2022/09/16 04:45:03;;;;;;;0.00;0.00;;;9.80;99.90;;;;;;4922422;28;20040;-88
2022/09/16 04:47:29;;;;;;;0.40;0.10;;;9.80;99.90;;;;;;4927975;28;20039;-88
2022/09/16 04:49:54;;;;;;;0.00;0.00;;;9.80;99.90;;;;;;4937440;28;20501;-87
2022/09/16 04:52:20;;;;;;;0.00;0.00;;;9.80;99.90;;;;;;4962324;28;20138;-87
2022/09/16 04:54:46;;;;;;;0.00;0.00;;;9.70;99.90;;;;;;4933273;28;20055;-87
2022/09/16 04:57:12;;;;;;;0.00;0.00;;;9.70;99.90;;;;;;4911877;28;20497;-88
2022/09/16 04:59:37;;;;;;;0.00;0.00;;;9.80;99.90;;;;;;4929867;28;20143;-87
2022/09/16 05:02:03;;;;;;;0.07;0.07;;;9.70;99.90;;;;;;4928334;28;20641;-88
2022/09/16 05:04:29;;;;;;;0.00;0.00;;;9.60;99.90;;;;;;4963818;28;20069;-87
2022/09/16 05:06:55;;;;;;;0.00;0.00;;;9.60;99.90;;;;;;4930590;28;20039;-88
2022/09/16 05:09:21;;;;;;;0.00;0.00;;;9.60;99.90;;;;;;4970467;28;20462;-88
2022/09/16 05:11:47;;;;;;;0.00;0.00;;;9.60;99.90;;;;;;4936614;28;20397;-88
2022/09/16 05:14:15;;;;;;;0.00;0.00;;;9.50;99.90;;;;;;4928104;29;20405;-88
2022/09/16 05:16:42;;;;;;;0.10;0.10;;;9.60;99.90;;;;;;4972047;28;20058;-89
2022/09/16 05:19:10;;;;;;;0.00;0.00;;;9.50;99.90;;;;;;4942281;28;20106;-88
2022/09/16 05:21:36;;;;;;;0.10;0.10;;;9.50;99.90;;;;;;4955685;28;20125;-89
2022/09/16 05:24:06;;;;;;;0.05;0.00;;;9.90;99.90;;;;;;4955641;28;20051;-88
2022/09/16 05:26:34;;;;;;;0.08;0.00;;;9.50;99.90;;;;;;4939584;28;20060;-88
2022/09/16 05:29:01;;;;;;;0.00;0.00;;;9.50;99.90;;;;;;4929651;28;20511;-87
2022/09/16 05:31:29;;;;;;;0.00;0.00;;;9.50;99.90;;;;;;4970800;28;20571;-87
2022/09/16 05:33:59;;;;;;;0.00;0.00;;;9.50;99.90;;;;;;4963391;28;20582;-88
2022/09/16 05:36:26;;;;;;;0.00;0.00;;;9.50;99.90;;;;;;4941276;28;20043;-90
2022/09/16 05:38:52;;;;;;;0.00;0.00;;;9.50;99.90;;;;;;4916799;28;20082;-87
2022/09/16 05:41:17;;;;;;;0.00;0.00;;;9.50;99.90;;;;;;4930871;28;20043;-87
2022/09/16 05:43:43;;;;;;;0.00;0.00;;;9.50;99.90;;;;;;4970907;28;20062;-89
2022/09/16 05:46:15;;;;;;;0.00;0.00;;;9.50;99.90;;;;;;4951554;28;20057;-95
2022/09/16 05:48:41;;;;;;;0.00;0.00;;;9.50;99.90;;;;;;4932830;28;20917;-90
2022/09/16 05:51:09;;;;;;;0.03;0.00;;;9.60;99.90;;;;;;4944172;28;20051;-91
2022/09/16 05:53:34;;;;;;;0.00;0.00;;;9.60;99.90;;;;;;4970638;28;20119;-90
2022/09/16 05:56:02;;;;;;;0.00;0.00;;;9.70;99.90;;;;;;4937262;28;20490;-91
2022/09/16 05:58:29;;;;;;;0.00;0.00;;;9.80;99.90;;;;;;4950401;28;20162;-91
2022/09/16 06:00:59;;;;;;;0.00;0.00;;;9.80;99.90;;;;;;4959518;28;20046;-91
2022/09/16 06:03:26;;;;;;;0.20;0.00;;;9.80;99.90;;;;;;4957443;28;20094;-86
2022/09/16 06:05:58;;;;;;;0.05;0.05;;;9.90;99.90;;;;;;4966902;28;20047;-89
2022/09/16 06:08:23;;;;;;;0.00;0.00;;;9.90;99.90;;;;;;4966204;28;20050;-87
2022/09/16 06:10:49;;;;;;;0.00;0.00;;;10.00;99.90;;;;;;4947687;28;20041;-87
2022/09/16 06:13:15;;;;;;;0.00;0.00;;;10.10;99.90;;;;;;4972022;28;20102;-89
2022/09/16 06:15:48;;;;;;;0.00;0.00;;;10.20;99.90;;;;;;4950539;28;20050;-87
2022/09/16 06:18:15;;;;;;;0.15;0.15;;;10.30;99.90;;;;;;4938471;28;20047;-86
2022/09/16 06:20:40;;;;;;;0.00;0.00;;;10.40;99.90;;;;;;4958686;28;20051;-87
2022/09/16 06:23:06;;;;;;;0.00;0.00;;;10.60;99.90;;;;;;4943694;28;20146;-82
2022/09/16 06:25:33;;;;;;;0.10;0.00;;;10.70;99.90;;;;;;4994308;28;20046;-84
2022/09/16 06:27:58;;;;;;;0.10;0.10;;;10.80;99.90;;;;;;4929244;28;20047;-86
2022/09/16 06:30:24;;;;;;;0.00;0.00;;;10.80;99.90;;;;;;4944041;28;20039;-85
2022/09/16 06:32:50;;;;;;;0.00;0.00;;;10.90;99.90;;;;;;4928695;28;20109;-84
2022/09/16 06:35:16;;;;;;;0.00;0.00;;;11.00;99.90;;;;;;4940677;29;20082;-84
2022/09/16 06:37:41;;;;;;;0.23;0.00;;;10.20;99.90;;;;;;4937598;28;20505;-84
2022/09/16 06:40:07;;;;;;;0.00;0.00;;;11.30;99.90;;;;;;4976322;28;20046;-84
2022/09/16 06:42:33;;;;;;;0.00;0.00;;;11.40;99.90;;;;;;4943515;28;20050;-85
2022/09/16 06:44:59;;;;;;;0.10;0.07;;;11.50;99.90;;;;;;4960040;28;20043;-85
2022/09/16 06:47:25;;;;;;;0.00;0.00;;;11.70;99.90;;;;;;4922487;29;20043;-83
2022/09/16 06:49:51;;;;;;;0.03;0.00;;;11.80;99.90;;;;;;4955982;28;20084;-84
2022/09/16 06:52:18;;;;;;;0.00;0.00;;;11.90;99.90;;;;;;4964937;28;20077;-82
2022/09/16 06:54:43;;;;;;;0.00;0.00;;;12.00;99.90;;;;;;4938905;28;20445;-82
2022/09/16 06:57:09;;;;;;;0.00;0.00;;;12.10;99.90;;;;;;4959587;28;20050;-88
2022/09/16 06:59:35;;;;;;;0.10;0.10;;;12.20;99.90;;;;;;4943197;28;20051;-88
2022/09/16 07:02:01;;;;;;;0.10;0.00;;;12.30;99.90;;;;;;4930153;28;20527;-87
2022/09/16 07:04:26;;;;;;;0.00;0.00;;;12.40;99.90;;;;;;4954741;28;20047;-87
2022/09/16 07:06:52;;;;;;;0.00;0.00;;;12.50;99.90;;;;;;4939622;29;20045;-87
2022/09/16 07:09:18;;;;;;;0.27;0.20;;;12.70;99.90;;;;;;4973301;28;20285;-88
2022/09/16 07:11:44;;;;;;;0.67;0.57;;;12.80;99.90;;;;;;4930548;28;20105;-89
2022/09/16 07:14:09;;;;;;;2.80;0.00;;;13.00;99.90;;;;;;4978747;28;20054;-89
2022/09/16 07:16:35;;;;;;;0.30;0.30;;;12.90;99.90;;;;;;4946102;28;20547;-89
2022/09/16 07:19:01;;;;;;;0.00;0.00;;;12.80;99.90;;;;;;4963032;28;20138;-88
2022/09/16 07:21:28;;;;;;;0.00;0.00;;;12.60;99.90;;;;;;4978916;28;20049;-89
2022/09/16 07:24:00;;;;;;;0.32;0.32;;;12.50;99.90;;;;;;4963033;28;20085;-90
2022/09/16 07:26:31;;;;;;;0.00;0.00;;;12.40;99.90;;;;;;4978607;28;20049;-89
2022/09/16 07:28:59;;;;;;;0.52;0.10;;;12.40;99.90;;;;;;4978614;28;20515;-88
2022/09/16 07:31:27;;;;;;;0.00;0.00;;;12.50;99.90;;;;;;4962356;28;20050;-89
2022/09/16 07:33:55;;;;;;;0.20;0.20;;;12.60;99.90;;;;;;4963177;28;20508;-89
2022/09/16 07:36:26;;;;;;;0.00;0.00;;;12.90;99.90;;;;;;4962744;28;20489;-89
2022/09/16 07:38:54;;;;;;;0.00;0.00;;;12.50;99.90;;;;;;4979181;28;20603;-89
2022/09/16 07:41:24;;;;;;;0.00;0.00;;;13.20;99.90;;;;;;4978210;28;20051;-89
2022/09/16 07:43:52;;;;;;;0.10;0.10;;;13.40;99.90;;;;;;4962841;28;20043;-89
2022/09/16 07:46:18;;;;;;;0.20;0.00;;;13.50;99.90;;;;;;4962871;28;20046;-89
2022/09/16 07:48:50;;;;;;;0.13;0.10;;;13.60;99.90;;;;;;4977901;28;20050;-89
2022/09/16 07:51:18;;;;;;;0.05;0.03;;;13.70;99.90;;;;;;4977572;28;20402;-88
2022/09/16 07:53:47;;;;;;;0.00;0.00;;;13.90;99.90;;;;;;4978313;28;20050;-89
2022/09/16 07:56:21;;;;;;;0.00;0.00;;;13.90;99.90;;;;;;4963323;28;20054;-89
2022/09/16 07:58:48;;;;;;;0.00;0.00;;;14.10;99.90;;;;;;4977368;28;20404;-88
2022/09/16 08:01:16;;;;;;;0.00;0.00;;;14.10;99.90;;;;;;4977254;28;20062;-89
2022/09/16 08:03:48;;;;;;;0.03;0.03;;;15.20;99.90;;;;;;4961505;28;20134;-89
2022/09/16 08:06:22;;;;;;;0.03;0.03;;;14.20;99.90;;;;;;4978312;28;20129;-88
2022/09/16 08:09:07;;;;;;;0.03;0.03;;;14.60;99.90;;;;;;4962162;28;20061;-89
2022/09/16 08:11:36;;;;;;;0.00;0.00;;;14.20;99.90;;;;;;4946314;28;20057;-88
2022/09/16 08:14:11;;;;;;;0.10;0.10;;;14.40;99.90;;;;;;4961588;28;20051;-88
2022/09/16 08:16:42;;;;;;;0.00;0.00;;;14.50;99.90;;;;;;4977572;28;20050;-88
2022/09/16 08:19:10;;;;;;;0.00;0.00;;;14.60;99.90;;;;;;4961610;28;20053;-88
2022/09/16 08:21:39;;;;;;;0.00;0.00;;;14.60;99.90;;;;;;4977296;28;20113;-89
2022/09/16 08:24:12;;;;;;;0.00;0.00;;;14.20;99.90;;;;;;4961347;28;20065;-89
2022/09/16 08:26:43;;;;;;;0.00;0.00;;;14.70;99.90;;;;;;4961474;28;20089;-89
2022/09/16 08:29:14;;;;;;;0.00;0.00;;;14.80;99.90;;;;;;4978975;28;20060;-88
2022/09/16 08:31:48;;;;;;;0.00;0.00;;;14.90;99.90;;;;;;4963396;28;20084;-88
2022/09/16 08:34:15;;;;;;;0.05;0.00;;;15.00;99.90;;;;;;4961042;28;20042;-88
2022/09/16 08:36:56;;;;;;;0.00;0.00;;;15.10;99.90;;;;;;4977807;28;20050;-88
2022/09/16 08:39:26;;;;;;;0.00;0.00;;;15.20;99.90;;;;;;4947390;28;20101;-88
2022/09/16 08:42:14;;;;;;;0.10;0.10;;;15.20;99.90;;;;;;4961005;28;20050;-88
2022/09/16 08:44:59;;;;;;;;;;;15.10;99.90;;;;;;4961088;28;20054;-88
2022/09/16 08:47:45;;;;;;;0.00;0.00;;;15.00;99.90;;;;;;4976843;28;19922;-88
2022/09/16 08:50:36;;;;;;;0.00;0.00;;;14.90;99.90;;;;;;4961119;28;20058;-88
2022/09/16 08:53:05;;;;;;;1.75;0.00;;;14.80;99.90;;;;;;4941383;28;20050;-88
2022/09/16 08:55:41;;;;;;;1.45;0.10;;;14.90;99.90;;;;;;4957502;28;20133;-88
2022/09/16 08:58:18;;;;;;;0.05;0.05;;;15.30;99.90;;;;;;4941687;28;20485;-88
2022/09/16 09:00:53;;;;;;;0.00;0.00;;;15.10;99.90;;;;;;4941676;28;20055;-88
2022/09/16 09:03:45;;;;;;;0.03;0.03;;;15.20;99.90;;;;;;4942953;28;20386;-89
2022/09/16 09:06:26;;;;;;;0.28;0.28;;;15.20;99.90;;;;;;4941570;28;20090;-89
2022/09/16 09:09:32;;;;;;;0.00;0.00;;;15.20;99.90;;;;;;4941445;28;20050;-88
2022/09/16 09:12:14;;;;;;;0.00;0.00;;;14.60;99.90;;;;;;4941162;28;20141;-88
2022/09/16 09:15:00;;;;;;;0.05;0.05;;;14.60;99.90;;;;;;4957357;28;20405;-90
2022/09/16 09:17:53;;;;;;;0.30;0.30;;;15.30;99.90;;;;;;4941713;28;20105;-88
2022/09/16 09:20:46;;;;;;;0.00;0.00;;;15.80;99.90;;;;;;4941225;28;20054;-88
2022/09/16 09:23:41;;;;;;;0.52;0.32;;;15.40;99.90;;;;;;4942592;28;20046;-88
2022/09/16 09:26:25;;;;;;;0.00;0.00;;;15.50;99.90;;;;;;4958254;28;20047;-88
2022/09/16 09:29:18;;;;;;;1.92;0.15;;;15.60;99.90;;;;;;4958053;28;20057;-88
2022/09/16 09:31:57;;;;;;;0.30;0.10;;;15.60;99.90;;;;;;4941418;28;20050;-89
2022/09/16 09:34:42;;;;;;;0.20;0.20;;;15.80;99.90;;;;;;4956919;28;20046;-89
2022/09/16 09:37:25;;;;;;;0.00;0.00;;;15.90;99.90;;;;;;4941443;28;20397;-88
2022/09/16 09:40:17;;;;;;;0.00;0.00;;;16.10;99.90;;;;;;4957191;28;20198;-89
2022/09/16 09:43:03;;;;;;;0.10;0.10;;;16.00;99.90;;;;;;4941096;28;20086;-88
2022/09/16 09:45:34;;;;;;;0.00;0.00;;;16.00;99.90;;;;;;4956836;28;20051;-89
2022/09/16 09:48:08;;;;;;;0.10;0.10;;;16.00;99.90;;;;;;4940723;28;20080;-88
2022/09/16 09:50:44;;;;;;;0.00;0.00;;;16.00;99.90;;;;;;4957170;28;20055;-88
2022/09/16 09:53:19;;;;;;;0.00;0.00;;;16.10;99.90;;;;;;4960378;28;20490;-88
2022/09/16 09:55:47;;;;;;;0.00;0.00;;;16.20;99.90;;;;;;4961440;28;20096;-88
2022/09/16 09:58:36;;;;;;;0.10;0.10;;;16.30;99.90;;;;;;4945787;28;20046;-87
2022/09/16 10:01:02;;;;;;;0.00;0.00;;;16.10;99.90;;;;;;4961180;28;20058;-88
2022/09/16 10:03:37;;;;;;;0.00;0.00;;;15.60;99.90;;;;;;4960475;28;20046;-87
2022/09/16 10:06:03;;;;;;;0.22;0.10;;;16.50;99.90;;;;;;4960904;28;20046;-88
2022/09/16 10:08:43;;;;;;;0.03;0.00;;;16.60;99.90;;;;;;4960012;28;20047;-87
2022/09/16 10:11:22;;;;;;;0.00;0.00;;;17.30;99.90;;;;;;4959829;28;20050;-88
2022/09/16 10:13:53;;;;;;;0.80;0.10;;;16.80;99.90;;;;;;4975733;28;20043;-88
2022/09/16 10:16:25;;;;;;;1.45;0.10;;;16.60;99.90;;;;;;4976471;28;20082;-87
2022/09/16 10:19:18;;;;;;;0.00;0.00;;;15.80;99.90;;;;;;4959888;28;20140;-88
2022/09/16 10:22:10;;;;;;;0.38;0.17;;;16.40;99.90;;;;;;4960110;28;20054;-87
2022/09/16 10:24:43;;;;;;;0.00;0.00;;;16.50;99.90;;;;;;4976506;28;20116;-88
2022/09/16 10:27:28;;;;;;;0.30;0.10;;;16.60;99.90;;;;;;4975459;28;20063;-87
2022/09/16 10:30:14;;;;;;;0.00;0.00;;;16.70;99.90;;;;;;4959544;28;20133;-88
2022/09/16 10:33:06;;;;;;;0.38;0.00;;;16.80;99.90;;;;;;4976189;28;20046;-88
2022/09/16 10:35:34;;;;;;;0.00;0.00;;;17.00;99.90;;;;;;4980518;28;20054;-87
2022/09/16 10:38:11;;;;;;;0.00;0.00;;;17.20;99.90;;;;;;4979516;28;20101;-87
2022/09/16 10:40:38;;;;;;;0.10;0.10;;;17.30;99.90;;;;;;4963464;28;20056;-88
2022/09/16 10:43:14;;;;;;;0.00;0.00;;;17.10;99.90;;;;;;4978758;28;20552;-87
2022/09/16 10:45:49;;;;;;;0.00;0.00;;;16.70;99.90;;;;;;4963576;28;20046;-86
2022/09/16 10:48:21;;;;;;;0.00;0.00;;;16.20;99.90;;;;;;4963385;28;20416;-86
2022/09/16 10:50:56;;;;;;;0.00;0.00;;;15.70;99.90;;;;;;4963252;28;20055;-86
2022/09/16 10:53:34;;;;;;;0.13;0.13;;;15.50;99.90;;;;;;4979367;28;20054;-86
2022/09/16 10:56:04;;;;;;;0.30;0.05;;;15.20;99.90;;;;;;4962900;28;20049;-86
2022/09/16 10:58:30;;;;;;;0.00;0.00;;;15.00;99.90;;;;;;4979239;28;20073;-86
2022/09/16 11:01:19;;;;;;;0.00;0.00;;;15.00;99.90;;;;;;4962522;28;20509;-87
2022/09/16 11:04:25;;;;;;;0.10;0.10;;;15.10;99.90;;;;;;4978985;28;20054;-87
2022/09/16 11:07:05;;;;;;;0.10;0.10;;;15.30;99.90;;;;;;4962860;28;20052;-87
2022/09/16 11:09:58;;;;;;;0.00;0.00;;;15.60;99.90;;;;;;4963296;28;20090;-87
2022/09/16 11:12:33;;;;;;;0.10;0.05;;;15.70;99.90;;;;;;4963262;28;20046;-87
2022/09/16 11:15:32;;;;;;;0.00;0.00;;;15.80;99.90;;;;;;4962579;28;20049;-87
2022/09/16 11:18:24;;;;;;;0.00;0.00;;;15.80;99.90;;;;;;4978300;28;20496;-87
2022/09/16 11:22:03;;;;;;;0.10;0.10;;;15.80;99.90;;;;;;4962638;28;20374;-87
2022/09/16 11:24:44;;;;;;;0.00;0.00;;;16.00;99.90;;;;;;4883465;29;20412;-88
2022/09/16 11:27:36;;;;;;;0.00;0.00;;;16.30;99.90;;;;;;4900603;29;20060;-87
2022/09/16 11:30:13;;;;;;;0.00;0.00;;;16.40;99.90;;;;;;4977974;28;20515;-87
2022/09/16 11:33:03;;;;;;;0.10;0.10;;;16.50;99.90;;;;;;4979547;28;20054;-87
2022/09/16 11:35:29;;;;;;;0.00;0.00;;;16.70;99.90;;;;;;4978186;28;20492;-88
2022/09/16 11:38:40;;;;;;;0.00;0.00;;;16.70;99.90;;;;;;4962359;28;20073;-88
2022/09/16 11:41:33;;;;;;;0.30;0.30;;;16.80;99.90;;;;;;4938730;29;20505;-87
2022/09/16 11:44:05;;;;;;;0.03;0.03;;;16.80;99.90;;;;;;4922708;29;20051;-89
2022/09/16 11:46:53;;;;;;;0.47;0.47;;;16.70;99.90;;;;;;4965595;28;20050;-88
2022/09/16 11:49:43;;;;;;;0.00;0.00;;;16.70;99.90;;;;;;4978426;28;20042;-88
2022/09/16 11:52:47;;;;;;;0.00;0.00;;;16.90;99.90;;;;;;4962008;28;20406;-87
2022/09/16 11:55:33;;;;;;;0.73;0.10;;;17.00;99.90;;;;;;4962344;28;20050;-87
2022/09/16 11:58:04;;;;;;;0.13;0.10;;;17.30;99.90;;;;;;4961607;28;20074;-89
2022/09/16 12:00:32;;;;;;;0.00;0.00;;;17.40;99.90;;;;;;4962357;28;20145;-88
2022/09/16 12:03:08;;;;;;;0.00;0.00;;;17.60;99.90;;;;;;4962207;28;20137;-96
2022/09/16 12:05:52;;;;;;;0.10;0.10;;;17.60;99.90;;;;;;4962062;28;20054;-87
2022/09/16 12:08:29;;;;;;;0.10;0.10;;;17.30;99.90;;;;;;4963134;28;20046;-87
2022/09/16 12:11:13;;;;;;;0.10;0.10;;;16.90;99.90;;;;;;4961986;28;20087;-87
2022/09/16 12:13:56;;;;;;;1.88;0.43;;;16.40;99.90;;;;;;4977677;28;20128;-88
2022/09/16 12:16:42;;;;;;;0.52;0.10;;;16.00;99.90;;;;;;4961900;28;20082;-88
2022/09/16 12:19:22;;;;;;;0.03;0.03;;;15.80;99.90;;;;;;4978360;28;20050;-88
2022/09/16 12:21:53;;;;;;;0.00;0.00;;;15.90;99.90;;;;;;4961418;28;20053;-87
2022/09/16 12:24:38;;;;;;;0.88;0.10;;;16.00;99.90;;;;;;4961362;28;20047;-88
2022/09/16 12:27:35;;;;;;;0.00;0.00;;;16.30;99.90;;;;;;4961108;28;20136;-87
2022/09/16 12:30:17;;;;;;;0.00;0.00;;;16.50;99.90;;;;;;4961030;28;20057;-88
2022/09/16 12:33:06;;;;;;;0.00;0.00;;;15.90;99.90;;;;;;4962011;28;20068;-88
2022/09/16 12:35:57;;;;;;;0.00;0.00;;;16.90;99.90;;;;;;4961535;28;20053;-87
2022/09/16 12:38:23;;;;;;;0.00;0.00;;;17.10;99.90;;;;;;4977029;28;20046;-87
2022/09/16 12:41:14;;;;;;;1.25;0.38;;;17.20;99.90;;;;;;4961315;28;20081;-88
2022/09/16 12:43:50;;;;;;;0.00;0.00;;;17.20;99.90;;;;;;4961008;28;20046;-87
2022/09/16 12:46:34;;;;;;;0.00;0.00;;;17.00;99.90;;;;;;4976497;28;20489;-87
2022/09/16 12:49:37;;;;;;;0.10;0.10;;;16.90;99.90;;;;;;4961455;28;20054;-87
2022/09/16 12:52:24;;;;;;;0.10;0.00;;;16.40;99.90;;;;;;4960870;28;20421;-86
2022/09/16 12:55:22;;;;;;;;;;;16.10;99.90;;;;;;4977092;28;20058;-86
2022/09/16 12:58:24;;;;;;;1.52;0.17;;;16.00;99.90;;;;;;4977469;28;19922;-87
2022/09/16 13:01:08;;;;;;;0.55;0.00;;;16.10;99.90;;;;;;4961187;28;20142;-87
2022/09/16 13:03:39;;;;;;;0.88;0.10;;;16.30;99.90;;;;;;4961233;28;20108;-86
2022/09/16 13:06:19;;;;;;;0.00;0.00;;;16.50;99.90;;;;;;4961099;28;20505;-87
2022/09/16 13:08:45;;;;;;;0.55;0.32;;;16.70;99.90;;;;;;4960834;28;20508;-87
2022/09/16 13:11:22;;;;;;;1.10;0.50;;;16.90;99.90;;;;;;4937155;28;20038;-88
2022/09/16 13:13:51;;;;;;;0.17;0.17;;;17.00;99.90;;;;;;4938544;28;20035;-87
2022/09/16 13:16:36;;;;;;;0.65;0.20;;;17.00;99.90;;;;;;4954263;29;20122;-91
2022/09/16 13:19:20;;;;;;;0.00;0.00;;;17.10;99.90;;;;;;4963047;28;20062;-96
2022/09/16 13:21:49;;;;;;;2.30;1.05;;;17.20;99.90;;;;;;4956637;28;20054;-96
2022/09/16 13:24:40;;;;;;;0.20;0.00;;;17.20;99.90;;;;;;4925467;28;20089;-96
2022/09/16 13:27:26;;;;;;;0.10;0.10;;;17.10;99.90;;;;;;4940785;28;20478;-95